createdAt,value
2023-01-08T00:02:13.999Z,-1.06
2023-01-08T00:04:40.798Z,-1.06
2023-01-08T00:07:07.512Z,-1.13
2023-01-08T00:09:34.229Z,-1.03
2023-01-08T00:12:00.965Z,-1.18
2023-01-08T00:14:27.755Z,-1.14
2023-01-08T00:16:54.608Z,-1.24
2023-01-08T00:19:21.322Z,-1.12
2023-01-08T00:21:48.151Z,-1.21
2023-01-08T00:24:15.062Z,-1.15
2023-01-08T00:26:41.765Z,-1.21
2023-01-08T00:29:08.623Z,-1.17
2023-01-08T00:31:35.370Z,-1.23
2023-01-08T00:34:02.076Z,-1.31
2023-01-08T00:36:28.804Z,-1.36
2023-01-08T00:38:55.545Z,-1.24
2023-01-08T00:41:22.421Z,-1.31
2023-01-08T00:43:49.146Z,-1.19
2023-01-08T00:46:15.924Z,-1.23
2023-01-08T00:48:42.623Z,-1.21
2023-01-08T00:51:09.587Z,-1.21
2023-01-08T00:53:38.177Z,-1.13
2023-01-08T00:56:09.961Z,-1.14
2023-01-08T00:58:37.059Z,-1.19
2023-01-08T01:01:10.521Z,-1.21
2023-01-08T01:03:37.375Z,-1.20
2023-01-08T01:06:05.506Z,-1.23
2023-01-08T01:08:32.261Z,-1.16
2023-01-08T01:10:58.998Z,-1.25
2023-01-08T01:13:26.002Z,-1.22
2023-01-08T01:15:59.877Z,-1.38
2023-01-08T01:18:26.609Z,-1.42
2023-01-08T01:20:53.548Z,-1.38
2023-01-08T01:23:20.343Z,-1.27
2023-01-08T01:25:46.985Z,-1.37
2023-01-08T01:28:13.599Z,-1.45
2023-01-08T01:30:40.391Z,-1.49
2023-01-08T01:33:07.029Z,-1.60
2023-01-08T01:35:33.811Z,-1.57
2023-01-08T01:38:00.456Z,-1.52
2023-01-08T01:40:27.168Z,-1.50
2023-01-08T01:42:53.946Z,-1.48
2023-01-08T01:45:27.676Z,-1.50
2023-01-08T01:47:58.693Z,-1.52
2023-01-08T01:50:44.671Z,-1.56
2023-01-08T01:53:16.284Z,-1.49
2023-01-08T01:55:44.028Z,-1.53
2023-01-08T01:58:16.736Z,-1.40
2023-01-08T02:00:44.362Z,-1.43
2023-01-08T02:03:12.042Z,-1.34
2023-01-08T02:05:50.464Z,-1.44
2023-01-08T02:08:32.030Z,-1.49
2023-01-08T02:11:17.172Z,-1.53
2023-01-08T02:13:49.421Z,-1.65
2023-01-08T02:16:35.529Z,-1.64
2023-01-08T02:19:10.312Z,-1.62
2023-01-08T02:21:52.906Z,-1.68
2023-01-08T02:24:51.994Z,-1.63
2023-01-08T02:27:19.759Z,-1.66
2023-01-08T02:29:47.412Z,-1.60
2023-01-08T02:32:14.077Z,-1.71
2023-01-08T02:34:40.673Z,-1.63
2023-01-08T02:37:09.133Z,-1.70
2023-01-08T02:39:53.941Z,-1.57
2023-01-08T02:42:23.302Z,-1.46
2023-01-08T02:45:08.459Z,-1.40
2023-01-08T02:48:17.051Z,-1.64
2023-01-08T02:50:55.289Z,-1.63
2023-01-08T02:53:29.138Z,-1.56
2023-01-08T02:55:59.272Z,-1.69
2023-01-08T02:58:28.022Z,-1.64
2023-01-08T03:00:54.938Z,-1.65
2023-01-08T03:03:29.436Z,-1.60
2023-01-08T03:06:03.655Z,-1.53
2023-01-08T03:08:33.598Z,-1.63
2023-01-08T03:11:18.048Z,-1.78
2023-01-08T03:13:50.804Z,-1.76
2023-01-08T03:16:46.620Z,-1.67
2023-01-08T03:19:22.616Z,-1.63
2023-01-08T03:21:51.182Z,-1.59
2023-01-08T03:24:24.436Z,-1.60
2023-01-08T03:26:52.552Z,-1.71
2023-01-08T03:29:20.771Z,-1.68
2023-01-08T03:31:48.550Z,-1.69
2023-01-08T03:34:16.092Z,-1.57
2023-01-08T03:36:46.898Z,-1.51
2023-01-08T03:39:19.516Z,-1.44
2023-01-08T03:41:47.211Z,-1.55
2023-01-08T03:44:14.019Z,-1.68
2023-01-08T03:46:44.623Z,-1.58
2023-01-08T03:49:12.305Z,-1.60
2023-01-08T03:51:41.095Z,-1.78
2023-01-08T03:54:09.937Z,-1.79
2023-01-08T03:56:36.596Z,-1.80
2023-01-08T03:59:03.239Z,-1.79
2023-01-08T04:01:29.978Z,-1.76
2023-01-08T04:03:56.646Z,-1.69
2023-01-08T04:06:23.281Z,-1.78
2023-01-08T04:08:49.947Z,-1.73
2023-01-08T04:11:16.842Z,-1.77
2023-01-08T04:13:43.801Z,-1.72
2023-01-08T04:16:10.529Z,-1.68
2023-01-08T04:18:37.236Z,-1.78
2023-01-08T04:21:04.107Z,-1.67
2023-01-08T04:23:30.800Z,-1.73
2023-01-08T04:25:57.443Z,-1.80
2023-01-08T04:28:24.941Z,-1.92
2023-01-08T04:30:51.859Z,-1.89
2023-01-08T04:33:18.565Z,-1.95
2023-01-08T04:35:45.270Z,-1.89
2023-01-08T04:38:11.992Z,-1.88
2023-01-08T04:40:38.721Z,-1.92
2023-01-08T04:43:05.411Z,-1.88
2023-01-08T04:45:32.124Z,-2.01
2023-01-08T04:47:59.481Z,-2.05
2023-01-08T04:50:26.912Z,-2.04
2023-01-08T04:52:53.825Z,-2.09
2023-01-08T04:55:20.518Z,-2.12
2023-01-08T04:57:48.059Z,-2.10
2023-01-08T05:00:15.323Z,-2.01
2023-01-08T05:02:42.268Z,-1.88
2023-01-08T05:05:09.233Z,-1.76
2023-01-08T05:07:35.980Z,-1.90
2023-01-08T05:10:02.739Z,-2.00
2023-01-08T05:12:29.417Z,-2.01
2023-01-08T05:14:56.244Z,-2.12
2023-01-08T05:17:22.883Z,-2.13
2023-01-08T05:19:49.509Z,-2.07
2023-01-08T05:22:16.115Z,-2.12
2023-01-08T05:24:42.715Z,-2.13
2023-01-08T05:27:09.300Z,-2.19
2023-01-08T05:29:35.921Z,-2.22
2023-01-08T05:32:02.528Z,-2.25
2023-01-08T05:34:29.112Z,-2.32
2023-01-08T05:36:55.795Z,-2.34
2023-01-08T05:39:22.443Z,-2.34
2023-01-08T05:41:48.979Z,-2.38
2023-01-08T05:44:15.628Z,-2.35
2023-01-08T05:46:42.276Z,-2.37
2023-01-08T05:49:09.077Z,-2.30
2023-01-08T05:51:35.698Z,-2.24
2023-01-08T05:54:02.309Z,-1.91
2023-01-08T05:56:28.966Z,-2.05
2023-01-08T05:58:56.001Z,-2.25
2023-01-08T06:01:22.750Z,-2.14
2023-01-08T06:03:49.538Z,-2.11
2023-01-08T06:06:16.868Z,-2.16
2023-01-08T06:08:43.543Z,-2.23
2023-01-08T06:11:12.073Z,-2.29
2023-01-08T06:13:42.006Z,-2.26
2023-01-08T06:16:08.707Z,-2.42
2023-01-08T06:18:35.707Z,-2.40
2023-01-08T06:21:04.162Z,-2.39
2023-01-08T06:23:31.669Z,-2.44
2023-01-08T06:26:00.054Z,-2.33
2023-01-08T06:28:27.138Z,-2.33
2023-01-08T06:30:53.775Z,-2.37
2023-01-08T06:33:21.474Z,-2.40
2023-01-08T06:35:48.447Z,-2.34
2023-01-08T06:38:15.375Z,-2.32
2023-01-08T06:40:41.972Z,-2.25
2023-01-08T06:43:08.609Z,-2.26
2023-01-08T06:45:35.430Z,-2.27
2023-01-08T06:48:03.410Z,-2.18
2023-01-08T06:50:30.674Z,-2.20
2023-01-08T06:52:57.579Z,-2.31
2023-01-08T06:55:29.142Z,-2.34
2023-01-08T06:57:59.068Z,-2.39
2023-01-08T07:00:27.387Z,-2.39
2023-01-08T07:02:54.715Z,-2.47
2023-01-08T07:05:21.691Z,-2.53
2023-01-08T07:07:48.484Z,-2.48
2023-01-08T07:10:15.245Z,-2.53
2023-01-08T07:12:41.927Z,-2.49
2023-01-08T07:15:09.262Z,-2.33
2023-01-08T07:17:35.854Z,-2.47
2023-01-08T07:20:02.608Z,-2.52
2023-01-08T07:22:29.195Z,-2.48
2023-01-08T07:24:55.772Z,-2.52
2023-01-08T07:27:22.615Z,-2.55
2023-01-08T07:29:49.480Z,-2.63
2023-01-08T07:32:16.139Z,-2.39
2023-01-08T07:34:42.899Z,-2.35
2023-01-08T07:37:09.494Z,-2.21
2023-01-08T07:39:36.123Z,-2.29
2023-01-08T07:42:02.785Z,-2.50
2023-01-08T07:44:29.415Z,-2.38
2023-01-08T07:46:56.241Z,-2.24
2023-01-08T07:49:23.004Z,-2.25
2023-01-08T07:51:50.041Z,-2.40
2023-01-08T07:54:16.624Z,-2.40
2023-01-08T07:56:43.293Z,-2.37
2023-01-08T07:59:10.050Z,-2.36
2023-01-08T08:01:36.870Z,-2.53
2023-01-08T08:04:03.827Z,-2.40
2023-01-08T08:06:30.650Z,-2.37
2023-01-08T08:08:58.239Z,-2.33
2023-01-08T08:11:24.843Z,-2.29
2023-01-08T08:13:53.020Z,-2.30
2023-01-08T08:16:20.607Z,-2.28
2023-01-08T08:18:47.583Z,-2.35
2023-01-08T08:21:14.500Z,-2.27
2023-01-08T08:23:41.158Z,-2.12
2023-01-08T08:26:08.044Z,-2.24
2023-01-08T08:28:34.755Z,-2.30
2023-01-08T08:31:01.684Z,-2.30
2023-01-08T08:33:28.664Z,-2.27
2023-01-08T08:35:55.501Z,-2.21
2023-01-08T08:38:24.069Z,-2.16
2023-01-08T08:40:51.219Z,-2.15
2023-01-08T08:43:18.180Z,-2.07
2023-01-08T08:45:45.009Z,-2.14
2023-01-08T08:48:11.932Z,-2.02
2023-01-08T08:50:39.116Z,-2.12
2023-01-08T08:53:06.641Z,-2.01
2023-01-08T08:55:33.722Z,-1.70
2023-01-08T08:58:11.052Z,-1.95
2023-01-08T09:00:42.175Z,-1.88
2023-01-08T09:03:14.846Z,-1.82
2023-01-08T09:05:43.314Z,-1.76
2023-01-08T09:08:10.401Z,-1.71
2023-01-08T09:10:42.547Z,-1.72
2023-01-08T09:13:10.027Z,-1.56
2023-01-08T09:15:37.606Z,-1.48
2023-01-08T09:18:04.701Z,-1.33
2023-01-08T09:20:31.557Z,-1.10
2023-01-08T09:22:59.527Z,-0.99
2023-01-08T09:25:26.641Z,-0.92
2023-01-08T09:28:04.426Z,-0.89
2023-01-08T09:30:31.524Z,-0.83
2023-01-08T09:33:03.201Z,-1.23
2023-01-08T09:35:31.070Z,-1.32
2023-01-08T09:37:57.830Z,-0.91
2023-01-08T09:40:27.171Z,-0.95
2023-01-08T09:42:59.204Z,-0.59
2023-01-08T09:45:31.691Z,-0.16
2023-01-08T09:48:00.857Z,0.65
2023-01-08T09:50:28.830Z,1.24
2023-01-08T09:52:55.469Z,2.33
2023-01-08T09:55:22.375Z,2.43
2023-01-08T09:57:49.306Z,2.67
2023-01-08T10:00:19.219Z,2.58
2023-01-08T10:02:46.065Z,2.88
2023-01-08T10:05:16.547Z,3.33
2023-01-08T10:07:43.629Z,3.76
2023-01-08T10:10:20.785Z,3.43
2023-01-08T10:12:48.541Z,3.79
2023-01-08T10:15:17.554Z,4.19
2023-01-08T10:18:06.189Z,4.34
2023-01-08T10:20:33.637Z,4.30
2023-01-08T10:23:12.003Z,4.23
2023-01-08T10:25:59.693Z,3.23
2023-01-08T10:28:31.670Z,3.48
2023-01-08T10:31:08.921Z,3.35
2023-01-08T10:33:44.218Z,3.58
2023-01-08T10:36:14.238Z,3.53
2023-01-08T10:38:55.376Z,3.37
2023-01-08T10:41:22.457Z,3.40
2023-01-08T10:44:04.591Z,3.37
2023-01-08T10:46:37.176Z,3.71
2023-01-08T10:49:05.589Z,3.56
2023-01-08T10:51:33.040Z,3.42
2023-01-08T10:54:13.165Z,3.86
2023-01-08T10:56:44.115Z,3.91
2023-01-08T10:59:24.919Z,3.93
2023-01-08T11:01:56.034Z,3.78
2023-01-08T11:04:34.575Z,3.95
2023-01-08T11:07:03.511Z,3.75
2023-01-08T11:09:34.102Z,3.46
2023-01-08T11:12:01.169Z,3.66
2023-01-08T11:14:35.265Z,3.62
2023-01-08T11:17:09.508Z,3.70
2023-01-08T11:19:36.665Z,3.59
2023-01-08T11:22:05.811Z,3.41
2023-01-08T11:24:35.112Z,3.38
2023-01-08T11:27:10.835Z,3.38
2023-01-08T11:29:57.944Z,3.36
2023-01-08T11:32:43.530Z,3.46
2023-01-08T11:35:13.278Z,3.68
2023-01-08T11:37:44.049Z,3.60
2023-01-08T11:40:15.182Z,3.87
2023-01-08T11:42:52.131Z,3.69
2023-01-08T11:45:30.143Z,4.17
2023-01-08T11:48:27.283Z,3.97
2023-01-08T11:50:59.898Z,3.98
2023-01-08T11:53:38.825Z,4.19
2023-01-08T11:56:18.194Z,4.53
2023-01-08T11:59:07.199Z,4.90
2023-01-08T12:01:40.100Z,4.43
2023-01-08T12:04:09.899Z,4.79
2023-01-08T12:06:49.554Z,5.17
2023-01-08T12:09:28.267Z,5.06
2023-01-08T12:12:05.545Z,5.04
2023-01-08T12:15:01.277Z,5.42
2023-01-08T12:17:38.069Z,5.05
2023-01-08T12:20:19.883Z,4.69
2023-01-08T12:23:04.942Z,4.95
2023-01-08T12:25:49.554Z,4.88
2023-01-08T12:28:21.866Z,4.95
2023-01-08T12:31:08.745Z,4.52
2023-01-08T12:33:54.707Z,4.90
2023-01-08T12:36:26.516Z,4.85
2023-01-08T12:38:59.113Z,4.65
2023-01-08T12:41:26.269Z,4.81
2023-01-08T12:43:59.276Z,5.03
2023-01-08T12:46:28.529Z,4.92
2023-01-08T12:48:56.825Z,5.23
2023-01-08T12:51:28.430Z,5.34
2023-01-08T12:54:26.138Z,5.71
2023-01-08T12:56:52.777Z,5.43
2023-01-08T12:59:53.380Z,5.73
2023-01-08T13:02:32.296Z,5.12
2023-01-08T13:04:59.097Z,5.20
2023-01-08T13:07:33.100Z,5.06
2023-01-08T13:10:04.029Z,5.12
2023-01-08T13:12:36.187Z,5.12
2023-01-08T13:15:03.689Z,4.76
2023-01-08T13:17:30.941Z,4.67
2023-01-08T13:20:06.701Z,4.32
2023-01-08T13:22:34.953Z,4.55
2023-01-08T13:25:28.171Z,4.64
2023-01-08T13:27:55.120Z,4.56
2023-01-08T13:30:46.509Z,4.22
2023-01-08T13:33:39.888Z,4.16
2023-01-08T13:36:21.050Z,4.24
2023-01-08T13:39:11.678Z,4.17
2023-01-08T13:41:46.458Z,4.02
2023-01-08T13:44:27.960Z,4.15
2023-01-08T13:46:58.511Z,4.10
2023-01-08T13:49:29.249Z,3.93
2023-01-08T13:51:56.006Z,3.97
2023-01-08T13:54:35.478Z,4.06
2023-01-08T13:57:06.108Z,4.21
2023-01-08T13:59:44.181Z,3.90
2023-01-08T14:02:32.087Z,4.30
2023-01-08T14:05:00.678Z,4.27
2023-01-08T14:07:27.861Z,4.25
2023-01-08T14:09:54.821Z,4.39
2023-01-08T14:12:23.593Z,4.41
2023-01-08T14:14:57.753Z,4.32
2023-01-08T14:17:30.385Z,4.18
2023-01-08T14:19:57.806Z,3.91
2023-01-08T14:22:29.407Z,3.69
2023-01-08T14:24:58.900Z,3.67
2023-01-08T14:27:27.998Z,3.45
2023-01-08T14:29:55.393Z,3.56
2023-01-08T14:32:24.597Z,3.62
2023-01-08T14:34:52.495Z,3.26
2023-01-08T14:37:19.747Z,3.24
2023-01-08T14:39:55.059Z,3.32
2023-01-08T14:42:44.565Z,3.16
2023-01-08T14:45:11.316Z,3.25
2023-01-08T14:47:42.537Z,3.11
2023-01-08T14:50:20.682Z,3.09
2023-01-08T14:52:47.887Z,2.89
2023-01-08T14:55:18.769Z,2.73
2023-01-08T14:57:47.269Z,2.67
2023-01-08T15:00:25.891Z,2.87
2023-01-08T15:02:53.097Z,2.78
2023-01-08T15:05:33.312Z,2.66
2023-01-08T15:08:30.536Z,2.61
2023-01-08T15:10:58.985Z,2.61
2023-01-08T15:13:30.824Z,2.52
2023-01-08T15:16:07.366Z,2.62
2023-01-08T15:18:43.127Z,2.79
2023-01-08T15:21:10.027Z,2.61
2023-01-08T15:23:41.619Z,2.54
2023-01-08T15:26:15.616Z,2.54
2023-01-08T15:29:02.357Z,2.60
2023-01-08T15:31:34.018Z,2.60
2023-01-08T15:34:01.138Z,2.40
2023-01-08T15:36:28.134Z,2.36
2023-01-08T15:38:55.087Z,2.43
2023-01-08T15:41:42.260Z,2.42
2023-01-08T15:44:12.987Z,2.34
2023-01-08T15:46:39.660Z,2.33
2023-01-08T15:49:06.315Z,2.48
2023-01-08T15:51:34.543Z,2.46
2023-01-08T15:54:01.832Z,2.50
2023-01-08T15:56:28.585Z,2.44
2023-01-08T15:58:55.173Z,2.46
2023-01-08T16:01:21.934Z,2.44
2023-01-08T16:03:48.866Z,2.43
2023-01-08T16:06:15.650Z,2.43
2023-01-08T16:08:45.957Z,2.38
2023-01-08T16:11:13.694Z,2.36
2023-01-08T16:13:40.689Z,2.32
2023-01-08T16:16:09.965Z,2.23
2023-01-08T16:18:38.294Z,2.25
2023-01-08T16:21:06.198Z,2.21
2023-01-08T16:23:37.349Z,2.21
2023-01-08T16:26:07.842Z,2.09
2023-01-08T16:28:34.443Z,2.08
2023-01-08T16:31:01.146Z,1.89
2023-01-08T16:33:27.921Z,1.89
2023-01-08T16:36:08.095Z,1.83
2023-01-08T16:38:35.835Z,1.85
2023-01-08T16:41:02.664Z,1.83
2023-01-08T16:43:30.604Z,1.72
2023-01-08T16:46:03.135Z,1.63
2023-01-08T16:48:30.543Z,1.53
2023-01-08T16:51:04.738Z,1.56
2023-01-08T16:53:31.672Z,1.64
2023-01-08T16:56:02.157Z,1.58
2023-01-08T16:58:29.603Z,1.53
2023-01-08T17:00:57.220Z,1.48
2023-01-08T17:03:24.412Z,1.56
2023-01-08T17:05:51.217Z,1.48
2023-01-08T17:08:20.052Z,1.38
2023-01-08T17:10:47.017Z,1.21
2023-01-08T17:13:13.629Z,1.41
2023-01-08T17:15:40.601Z,1.45
2023-01-08T17:18:07.261Z,1.41
2023-01-08T17:20:33.828Z,1.42
2023-01-08T17:23:02.064Z,1.20
2023-01-08T17:25:29.116Z,1.14
2023-01-08T17:27:55.917Z,0.93
2023-01-08T17:30:22.700Z,0.86
2023-01-08T17:32:49.576Z,0.96
2023-01-08T17:35:16.306Z,1.11
2023-01-08T17:37:42.965Z,0.99
2023-01-08T17:40:10.317Z,1.06
2023-01-08T17:42:36.992Z,0.86
2023-01-08T17:45:05.782Z,0.73
2023-01-08T17:47:33.117Z,0.72
2023-01-08T17:50:02.293Z,0.77
2023-01-08T17:52:29.160Z,0.69
2023-01-08T17:54:55.856Z,0.73
2023-01-08T17:57:22.979Z,0.59
2023-01-08T17:59:49.929Z,0.64
2023-01-08T18:02:17.571Z,0.72
2023-01-08T18:04:45.630Z,0.75
2023-01-08T18:07:12.508Z,0.80
2023-01-08T18:09:39.109Z,0.78
2023-01-08T18:12:06.128Z,0.84
2023-01-08T18:14:34.988Z,0.86
2023-01-08T18:17:02.083Z,0.66
2023-01-08T18:19:28.882Z,0.52
2023-01-08T18:21:55.655Z,0.56
2023-01-08T18:24:22.370Z,0.49
2023-01-08T18:26:50.002Z,0.48
2023-01-08T18:29:16.737Z,0.44
2023-01-08T18:31:45.936Z,0.41
2023-01-08T18:34:15.163Z,0.31
2023-01-08T18:36:42.102Z,0.24
2023-01-08T18:39:08.747Z,0.34
2023-01-08T18:41:53.881Z,0.31
2023-01-08T18:44:20.528Z,0.33
2023-01-08T18:46:48.232Z,0.29
2023-01-08T18:49:15.582Z,0.42
2023-01-08T18:51:42.899Z,0.47
2023-01-08T18:54:11.268Z,0.38
2023-01-08T18:56:38.495Z,0.49
2023-01-08T18:59:06.597Z,0.46
2023-01-08T19:01:35.247Z,0.50
2023-01-08T19:04:02.166Z,0.43
2023-01-08T19:06:29.077Z,0.39
2023-01-08T19:08:58.261Z,0.47
2023-01-08T19:11:25.449Z,0.45
2023-01-08T19:13:57.946Z,0.34
2023-01-08T19:16:24.783Z,0.37
2023-01-08T19:18:52.549Z,0.44
2023-01-08T19:21:19.682Z,0.47
2023-01-08T19:23:49.684Z,0.47
2023-01-08T19:26:16.884Z,0.47
2023-01-08T19:28:44.355Z,0.52
2023-01-08T19:31:13.378Z,0.48
2023-01-08T19:33:41.135Z,0.40
2023-01-08T19:36:12.707Z,0.45
2023-01-08T19:38:40.407Z,0.41
2023-01-08T19:41:27.943Z,0.43
2023-01-08T19:43:55.614Z,0.53
2023-01-08T19:46:22.270Z,0.56
2023-01-08T19:48:49.719Z,0.53
2023-01-08T19:51:16.396Z,0.55
2023-01-08T19:53:43.085Z,0.46
2023-01-08T19:56:12.760Z,0.53
2023-01-08T19:58:40.102Z,0.50
2023-01-08T20:01:26.960Z,0.59
2023-01-08T20:03:55.573Z,0.50
2023-01-08T20:06:24.659Z,0.57
2023-01-08T20:08:55.926Z,0.48
2023-01-08T20:11:23.445Z,0.38
2023-01-08T20:13:51.853Z,0.45
2023-01-08T20:16:20.229Z,0.22
2023-01-08T20:18:47.236Z,0.16
2023-01-08T20:21:21.792Z,0.26
2023-01-08T20:23:48.851Z,0.24
2023-01-08T20:26:17.857Z,0.27
2023-01-08T20:28:45.725Z,0.31
2023-01-08T20:31:19.667Z,0.37
2023-01-08T20:33:47.122Z,0.46
2023-01-08T20:36:20.020Z,0.59
2023-01-08T20:38:53.341Z,0.45
2023-01-08T20:41:20.334Z,0.27
2023-01-08T20:43:47.739Z,0.15
2023-01-08T20:46:15.613Z,0.17
2023-01-08T20:48:47.259Z,0.21
2023-01-08T20:51:16.120Z,0.06
2023-01-08T20:53:43.069Z,0.03
2023-01-08T20:56:13.015Z,0.08
2023-01-08T20:58:42.412Z,0.13
2023-01-08T21:01:16.089Z,0.16
2023-01-08T21:03:45.741Z,0.08
2023-01-08T21:06:16.938Z,-0.05
2023-01-08T21:08:45.947Z,0.03
2023-01-08T21:11:13.848Z,0.10
2023-01-08T21:13:40.960Z,0.04
2023-01-08T21:16:17.611Z,0.48
2023-01-08T21:18:47.317Z,0.31
2023-01-08T21:21:16.742Z,0.30
2023-01-08T21:23:43.820Z,0.36
2023-01-08T21:26:11.070Z,0.33
2023-01-08T21:28:38.579Z,0.33
2023-01-08T21:31:12.132Z,0.24
2023-01-08T21:33:39.328Z,0.23
2023-01-08T21:36:06.846Z,0.15
2023-01-08T21:38:33.852Z,0.18
2023-01-08T21:41:06.276Z,0.11
2023-01-08T21:43:51.840Z,0.07
2023-01-08T21:46:18.623Z,0.12
2023-01-08T21:48:50.063Z,0.08
2023-01-08T21:51:35.292Z,0.06
2023-01-08T21:54:02.143Z,0.05
2023-01-08T21:56:29.704Z,0.16
2023-01-08T21:58:56.317Z,0.21
2023-01-08T22:01:23.065Z,0.15
2023-01-08T22:03:49.738Z,0.12
2023-01-08T22:06:16.363Z,0.24
2023-01-08T22:08:43.022Z,0.14
2023-01-08T22:11:09.995Z,0.14
2023-01-08T22:13:38.190Z,0.15
2023-01-08T22:16:08.615Z,0.11
2023-01-08T22:18:36.259Z,0.24
2023-01-08T22:21:07.531Z,0.46
2023-01-08T22:23:34.650Z,0.24
2023-01-08T22:26:05.460Z,0.17
2023-01-08T22:28:33.110Z,0.20
2023-01-08T22:31:00.450Z,0.05
2023-01-08T22:33:27.109Z,0.05
2023-01-08T22:35:55.737Z,0.15
2023-01-08T22:38:23.692Z,0.14
2023-01-08T22:40:50.262Z,0.12
2023-01-08T22:43:16.894Z,0.16
2023-01-08T22:45:43.498Z,0.02
2023-01-08T22:48:10.351Z,0.18
2023-01-08T22:50:36.941Z,0.09
2023-01-08T22:53:03.541Z,0.18
2023-01-08T22:55:30.169Z,0.13
2023-01-08T22:57:56.762Z,0.06
2023-01-08T23:00:23.427Z,0.16
2023-01-08T23:02:50.172Z,0.06
2023-01-08T23:05:16.925Z,0.16
2023-01-08T23:07:43.511Z,0.17
2023-01-08T23:10:11.664Z,0.13
2023-01-08T23:12:38.203Z,0.09
2023-01-08T23:15:06.146Z,0.25
2023-01-08T23:17:38.933Z,0.23
2023-01-08T23:20:11.635Z,0.09
2023-01-08T23:22:38.851Z,0.17
2023-01-08T23:25:06.022Z,0.08
2023-01-08T23:27:34.039Z,0.04
2023-01-08T23:30:01.185Z,0.15
2023-01-08T23:32:27.934Z,0.16
2023-01-08T23:34:54.544Z,0.23
2023-01-08T23:37:21.424Z,0.34
2023-01-08T23:39:48.041Z,0.24
2023-01-08T23:42:14.937Z,0.35
2023-01-08T23:44:41.962Z,0.31
2023-01-08T23:47:08.722Z,0.29
2023-01-08T23:49:35.605Z,0.24
2023-01-08T23:52:02.253Z,0.31
2023-01-08T23:54:28.886Z,0.45
2023-01-08T23:56:55.514Z,0.37
2023-01-08T23:59:22.130Z,0.33
